sensor_id;sensor_type;location;lat;lon;timestamp;P1;durP1;ratioP1;P2;durP2;ratioP2
63499;SDS011;49654;51.142;14.924;2023-09-07T00:01:30;9.80;;;8.05;;
63499;SDS011;49654;51.142;14.924;2023-09-07T00:03:59;9.15;;;7.32;;
63499;SDS011;49654;51.142;14.924;2023-09-07T00:06:26;10.90;;;8.23;;
63499;SDS011;49654;51.142;14.924;2023-09-07T00:08:53;11.73;;;8.07;;
63499;SDS011;49654;51.142;14.924;2023-09-07T00:11:21;9.90;;;8.32;;
63499;SDS011;49654;51.142;14.924;2023-09-07T00:13:48;9.98;;;8.07;;
63499;SDS011;49654;51.142;14.924;2023-09-07T00:16:16;9.32;;;8.07;;
63499;SDS011;49654;51.142;14.924;2023-09-07T00:18:43;9.90;;;8.00;;
63499;SDS011;49654;51.142;14.924;2023-09-07T00:21:11;9.23;;;7.70;;
63499;SDS011;49654;51.142;14.924;2023-09-07T00:23:39;11.05;;;8.68;;
63499;SDS011;49654;51.142;14.924;2023-09-07T00:26:06;9.63;;;7.93;;
63499;SDS011;49654;51.142;14.924;2023-09-07T00:28:33;9.45;;;8.38;;
63499;SDS011;49654;51.142;14.924;2023-09-07T00:31:00;11.32;;;8.23;;
63499;SDS011;49654;51.142;14.924;2023-09-07T00:33:27;9.93;;;8.02;;
63499;SDS011;49654;51.142;14.924;2023-09-07T00:35:54;9.32;;;7.85;;
63499;SDS011;49654;51.142;14.924;2023-09-07T00:38:23;12.93;;;8.30;;
63499;SDS011;49654;51.142;14.924;2023-09-07T00:40:50;8.30;;;7.50;;
63499;SDS011;49654;51.142;14.924;2023-09-07T00:43:17;10.57;;;8.23;;
63499;SDS011;49654;51.142;14.924;2023-09-07T00:45:44;14.15;;;7.85;;
63499;SDS011;49654;51.142;14.924;2023-09-07T00:48:11;9.20;;;7.30;;
63499;SDS011;49654;51.142;14.924;2023-09-07T00:50:39;9.98;;;7.63;;
63499;SDS011;49654;51.142;14.924;2023-09-07T00:53:07;12.57;;;7.57;;
63499;SDS011;49654;51.142;14.924;2023-09-07T00:55:35;9.88;;;8.02;;
63499;SDS011;49654;51.142;14.924;2023-09-07T00:58:03;10.45;;;8.52;;
63499;SDS011;49654;51.142;14.924;2023-09-07T01:00:31;9.25;;;7.60;;
63499;SDS011;49654;51.142;14.924;2023-09-07T01:02:59;9.38;;;7.45;;
63499;SDS011;49654;51.142;14.924;2023-09-07T01:05:27;9.27;;;7.10;;
63499;SDS011;49654;51.142;14.924;2023-09-07T01:08:01;9.38;;;7.80;;
63499;SDS011;49654;51.142;14.924;2023-09-07T01:10:38;10.25;;;7.93;;
63499;SDS011;49654;51.142;14.924;2023-09-07T01:13:05;9.43;;;7.90;;
63499;SDS011;49654;51.142;14.924;2023-09-07T01:15:32;8.65;;;7.72;;
63499;SDS011;49654;51.142;14.924;2023-09-07T01:17:59;8.05;;;7.03;;
63499;SDS011;49654;51.142;14.924;2023-09-07T01:20:27;9.27;;;7.55;;
63499;SDS011;49654;51.142;14.924;2023-09-07T01:22:58;9.95;;;7.90;;
63499;SDS011;49654;51.142;14.924;2023-09-07T01:25:25;9.07;;;7.20;;
63499;SDS011;49654;51.142;14.924;2023-09-07T01:27:53;9.45;;;7.57;;
63499;SDS011;49654;51.142;14.924;2023-09-07T01:30:20;11.18;;;7.90;;
63499;SDS011;49654;51.142;14.924;2023-09-07T01:32:47;9.70;;;8.20;;
63499;SDS011;49654;51.142;14.924;2023-09-07T01:35:15;9.40;;;7.65;;
63499;SDS011;49654;51.142;14.924;2023-09-07T01:37:43;11.68;;;8.55;;
63499;SDS011;49654;51.142;14.924;2023-09-07T01:40:12;11.23;;;8.55;;
63499;SDS011;49654;51.142;14.924;2023-09-07T01:42:39;10.32;;;8.30;;
63499;SDS011;49654;51.142;14.924;2023-09-07T01:45:06;12.15;;;8.55;;
63499;SDS011;49654;51.142;14.924;2023-09-07T01:47:34;11.77;;;8.95;;
63499;SDS011;49654;51.142;14.924;2023-09-07T01:50:01;10.05;;;8.23;;
63499;SDS011;49654;51.142;14.924;2023-09-07T01:52:28;11.13;;;8.32;;
63499;SDS011;49654;51.142;14.924;2023-09-07T01:54:56;10.43;;;8.70;;
63499;SDS011;49654;51.142;14.924;2023-09-07T01:57:25;13.30;;;8.50;;
63499;SDS011;49654;51.142;14.924;2023-09-07T01:59:52;9.93;;;7.72;;
63499;SDS011;49654;51.142;14.924;2023-09-07T02:02:19;10.38;;;7.53;;
63499;SDS011;49654;51.142;14.924;2023-09-07T02:04:46;10.25;;;8.30;;
63499;SDS011;49654;51.142;14.924;2023-09-07T02:07:13;9.40;;;7.90;;
63499;SDS011;49654;51.142;14.924;2023-09-07T02:09:40;9.23;;;7.82;;
63499;SDS011;49654;51.142;14.924;2023-09-07T02:12:08;9.07;;;8.15;;
63499;SDS011;49654;51.142;14.924;2023-09-07T02:14:37;9.55;;;7.82;;
63499;SDS011;49654;51.142;14.924;2023-09-07T02:17:04;9.10;;;8.10;;
63499;SDS011;49654;51.142;14.924;2023-09-07T02:19:31;10.15;;;8.23;;
63499;SDS011;49654;51.142;14.924;2023-09-07T02:21:58;9.68;;;7.65;;
63499;SDS011;49654;51.142;14.924;2023-09-07T02:24:25;12.68;;;8.00;;
63499;SDS011;49654;51.142;14.924;2023-09-07T02:26:52;9.88;;;8.07;;
63499;SDS011;49654;51.142;14.924;2023-09-07T02:29:19;10.38;;;7.68;;
63499;SDS011;49654;51.142;14.924;2023-09-07T02:31:48;11.40;;;7.97;;
63499;SDS011;49654;51.142;14.924;2023-09-07T02:34:15;13.65;;;7.75;;
63499;SDS011;49654;51.142;14.924;2023-09-07T02:36:42;10.00;;;7.60;;
63499;SDS011;49654;51.142;14.924;2023-09-07T02:39:09;9.10;;;7.90;;
63499;SDS011;49654;51.142;14.924;2023-09-07T02:41:37;8.75;;;7.28;;
63499;SDS011;49654;51.142;14.924;2023-09-07T02:44:04;10.43;;;7.53;;
63499;SDS011;49654;51.142;14.924;2023-09-07T02:46:31;9.98;;;7.22;;
63499;SDS011;49654;51.142;14.924;2023-09-07T02:49:00;11.10;;;7.97;;
63499;SDS011;49654;51.142;14.924;2023-09-07T02:51:27;9.82;;;7.13;;
63499;SDS011;49654;51.142;14.924;2023-09-07T02:53:55;9.00;;;7.30;;
63499;SDS011;49654;51.142;14.924;2023-09-07T02:56:23;10.23;;;8.25;;
63499;SDS011;49654;51.142;14.924;2023-09-07T02:58:50;11.43;;;8.30;;
63499;SDS011;49654;51.142;14.924;2023-09-07T03:01:17;8.23;;;7.40;;
63499;SDS011;49654;51.142;14.924;2023-09-07T03:03:46;8.75;;;7.85;;
63499;SDS011;49654;51.142;14.924;2023-09-07T03:06:15;9.20;;;7.78;;
63499;SDS011;49654;51.142;14.924;2023-09-07T03:08:42;9.00;;;7.55;;
63499;SDS011;49654;51.142;14.924;2023-09-07T03:11:10;8.63;;;7.60;;
63499;SDS011;49654;51.142;14.924;2023-09-07T03:13:37;7.95;;;7.15;;
63499;SDS011;49654;51.142;14.924;2023-09-07T03:16:04;7.40;;;6.70;;
63499;SDS011;49654;51.142;14.924;2023-09-07T03:18:32;7.82;;;7.05;;
63499;SDS011;49654;51.142;14.924;2023-09-07T03:20:59;7.75;;;6.75;;
63499;SDS011;49654;51.142;14.924;2023-09-07T03:23:29;9.05;;;7.15;;
63499;SDS011;49654;51.142;14.924;2023-09-07T03:25:58;8.02;;;6.90;;
63499;SDS011;49654;51.142;14.924;2023-09-07T03:28:25;8.38;;;7.57;;
63499;SDS011;49654;51.142;14.924;2023-09-07T03:30:53;7.90;;;7.03;;
63499;SDS011;49654;51.142;14.924;2023-09-07T03:33:21;8.23;;;6.30;;
63499;SDS011;49654;51.142;14.924;2023-09-07T03:35:48;9.35;;;6.97;;
63499;SDS011;49654;51.142;14.924;2023-09-07T03:38:17;8.57;;;6.35;;
63499;SDS011;49654;51.142;14.924;2023-09-07T03:40:45;9.02;;;6.43;;
63499;SDS011;49654;51.142;14.924;2023-09-07T03:43:12;8.50;;;6.25;;
63499;SDS011;49654;51.142;14.924;2023-09-07T03:45:39;10.15;;;7.25;;
63499;SDS011;49654;51.142;14.924;2023-09-07T03:48:06;9.25;;;7.50;;
63499;SDS011;49654;51.142;14.924;2023-09-07T03:50:35;10.35;;;7.15;;
63499;SDS011;49654;51.142;14.924;2023-09-07T03:53:02;7.78;;;6.55;;
63499;SDS011;49654;51.142;14.924;2023-09-07T03:55:29;7.63;;;6.28;;
63499;SDS011;49654;51.142;14.924;2023-09-07T03:57:58;8.25;;;6.80;;
63499;SDS011;49654;51.142;14.924;2023-09-07T04:00:25;8.10;;;6.68;;
63499;SDS011;49654;51.142;14.924;2023-09-07T04:02:52;6.90;;;5.63;;
63499;SDS011;49654;51.142;14.924;2023-09-07T04:05:21;7.80;;;6.00;;
63499;SDS011;49654;51.142;14.924;2023-09-07T04:07:50;9.45;;;6.97;;
63499;SDS011;49654;51.142;14.924;2023-09-07T04:10:17;7.88;;;6.60;;
63499;SDS011;49654;51.142;14.924;2023-09-07T04:12:44;10.35;;;6.65;;
63499;SDS011;49654;51.142;14.924;2023-09-07T04:15:12;10.60;;;7.03;;
63499;SDS011;49654;51.142;14.924;2023-09-07T04:17:39;7.85;;;7.10;;
63499;SDS011;49654;51.142;14.924;2023-09-07T04:20:07;7.90;;;6.32;;
63499;SDS011;49654;51.142;14.924;2023-09-07T04:22:35;8.60;;;6.88;;
63499;SDS011;49654;51.142;14.924;2023-09-07T04:25:03;14.88;;;7.28;;
63499;SDS011;49654;51.142;14.924;2023-09-07T04:27:30;9.32;;;6.90;;
63499;SDS011;49654;51.142;14.924;2023-09-07T04:29:57;10.10;;;7.07;;
63499;SDS011;49654;51.142;14.924;2023-09-07T04:32:26;8.15;;;6.93;;
63499;SDS011;49654;51.142;14.924;2023-09-07T04:34:53;7.47;;;6.78;;
63499;SDS011;49654;51.142;14.924;2023-09-07T04:37:21;10.35;;;7.72;;
63499;SDS011;49654;51.142;14.924;2023-09-07T04:39:50;10.63;;;6.97;;
63499;SDS011;49654;51.142;14.924;2023-09-07T04:42:18;9.55;;;7.10;;
63499;SDS011;49654;51.142;14.924;2023-09-07T04:44:45;8.52;;;6.60;;
63499;SDS011;49654;51.142;14.924;2023-09-07T04:47:12;10.10;;;6.60;;
63499;SDS011;49654;51.142;14.924;2023-09-07T04:49:41;7.70;;;6.90;;
63499;SDS011;49654;51.142;14.924;2023-09-07T04:52:08;8.90;;;7.00;;
63499;SDS011;49654;51.142;14.924;2023-09-07T04:54:35;13.50;;;7.88;;
63499;SDS011;49654;51.142;14.924;2023-09-07T04:57:02;7.97;;;7.07;;
63499;SDS011;49654;51.142;14.924;2023-09-07T04:59:29;11.60;;;7.38;;
63499;SDS011;49654;51.142;14.924;2023-09-07T05:01:58;14.10;;;7.40;;
63499;SDS011;49654;51.142;14.924;2023-09-07T05:04:26;15.50;;;8.52;;
63499;SDS011;49654;51.142;14.924;2023-09-07T05:06:55;9.15;;;7.40;;
63499;SDS011;49654;51.142;14.924;2023-09-07T05:09:22;9.07;;;7.70;;
63499;SDS011;49654;51.142;14.924;2023-09-07T05:11:50;12.25;;;7.70;;
63499;SDS011;49654;51.142;14.924;2023-09-07T05:14:18;10.35;;;7.65;;
63499;SDS011;49654;51.142;14.924;2023-09-07T05:16:45;11.15;;;8.18;;
63499;SDS011;49654;51.142;14.924;2023-09-07T05:19:12;10.20;;;8.15;;
63499;SDS011;49654;51.142;14.924;2023-09-07T05:21:39;11.20;;;7.82;;
63499;SDS011;49654;51.142;14.924;2023-09-07T05:24:08;10.07;;;7.47;;
63499;SDS011;49654;51.142;14.924;2023-09-07T05:26:35;10.55;;;7.60;;
63499;SDS011;49654;51.142;14.924;2023-09-07T05:29:02;12.55;;;8.18;;
63499;SDS011;49654;51.142;14.924;2023-09-07T05:31:29;10.48;;;7.53;;
63499;SDS011;49654;51.142;14.924;2023-09-07T05:33:56;11.48;;;8.80;;
63499;SDS011;49654;51.142;14.924;2023-09-07T05:36:23;8.50;;;7.05;;
63499;SDS011;49654;51.142;14.924;2023-09-07T05:38:50;9.85;;;7.40;;
63499;SDS011;49654;51.142;14.924;2023-09-07T05:41:18;9.65;;;7.70;;
63499;SDS011;49654;51.142;14.924;2023-09-07T05:43:45;10.95;;;8.05;;
63499;SDS011;49654;51.142;14.924;2023-09-07T05:46:12;9.32;;;7.90;;
63499;SDS011;49654;51.142;14.924;2023-09-07T05:48:39;8.13;;;6.88;;
63499;SDS011;49654;51.142;14.924;2023-09-07T05:51:06;10.13;;;7.38;;
63499;SDS011;49654;51.142;14.924;2023-09-07T05:53:33;8.55;;;7.68;;
63499;SDS011;49654;51.142;14.924;2023-09-07T05:56:00;9.70;;;8.27;;
63499;SDS011;49654;51.142;14.924;2023-09-07T05:58:29;8.20;;;7.40;;
63499;SDS011;49654;51.142;14.924;2023-09-07T06:00:56;9.65;;;8.10;;
63499;SDS011;49654;51.142;14.924;2023-09-07T06:03:23;8.82;;;7.20;;
63499;SDS011;49654;51.142;14.924;2023-09-07T06:05:50;8.73;;;7.55;;
63499;SDS011;49654;51.142;14.924;2023-09-07T06:08:17;8.07;;;7.28;;
63499;SDS011;49654;51.142;14.924;2023-09-07T06:10:44;7.47;;;6.72;;
63499;SDS011;49654;51.142;14.924;2023-09-07T06:13:11;7.45;;;6.70;;
63499;SDS011;49654;51.142;14.924;2023-09-07T06:15:39;9.25;;;7.47;;
63499;SDS011;49654;51.142;14.924;2023-09-07T06:18:06;8.05;;;7.00;;
63499;SDS011;49654;51.142;14.924;2023-09-07T06:20:33;8.63;;;6.97;;
63499;SDS011;49654;51.142;14.924;2023-09-07T06:23:01;8.00;;;6.88;;
63499;SDS011;49654;51.142;14.924;2023-09-07T06:25:28;8.57;;;7.57;;
63499;SDS011;49654;51.142;14.924;2023-09-07T06:27:55;9.00;;;8.10;;
63499;SDS011;49654;51.142;14.924;2023-09-07T06:30:22;9.65;;;8.65;;
63499;SDS011;49654;51.142;14.924;2023-09-07T06:32:50;11.15;;;9.13;;
63499;SDS011;49654;51.142;14.924;2023-09-07T06:35:18;9.43;;;8.20;;
63499;SDS011;49654;51.142;14.924;2023-09-07T06:37:45;9.63;;;8.55;;
63499;SDS011;49654;51.142;14.924;2023-09-07T06:40:12;9.27;;;8.18;;
63499;SDS011;49654;51.142;14.924;2023-09-07T06:42:41;12.85;;;9.93;;
63499;SDS011;49654;51.142;14.924;2023-09-07T06:45:08;12.15;;;9.27;;
63499;SDS011;49654;51.142;14.924;2023-09-07T06:47:36;10.15;;;8.68;;
63499;SDS011;49654;51.142;14.924;2023-09-07T06:50:04;11.05;;;9.48;;
63499;SDS011;49654;51.142;14.924;2023-09-07T06:52:32;15.35;;;10.52;;
63499;SDS011;49654;51.142;14.924;2023-09-07T06:54:59;16.45;;;10.57;;
63499;SDS011;49654;51.142;14.924;2023-09-07T06:57:26;10.85;;;9.32;;
63499;SDS011;49654;51.142;14.924;2023-09-07T06:59:53;12.95;;;9.73;;
63499;SDS011;49654;51.142;14.924;2023-09-07T07:02:20;13.02;;;10.02;;
63499;SDS011;49654;51.142;14.924;2023-09-07T07:04:47;12.20;;;9.30;;
63499;SDS011;49654;51.142;14.924;2023-09-07T07:07:16;12.07;;;9.15;;
63499;SDS011;49654;51.142;14.924;2023-09-07T07:09:43;9.90;;;7.78;;
63499;SDS011;49654;51.142;14.924;2023-09-07T07:12:10;11.65;;;8.50;;
63499;SDS011;49654;51.142;14.924;2023-09-07T07:14:37;9.20;;;8.00;;
63499;SDS011;49654;51.142;14.924;2023-09-07T07:17:05;9.98;;;7.65;;
63499;SDS011;49654;51.142;14.924;2023-09-07T07:19:32;11.10;;;7.97;;
63499;SDS011;49654;51.142;14.924;2023-09-07T07:21:59;9.40;;;8.00;;
63499;SDS011;49654;51.142;14.924;2023-09-07T07:24:27;9.75;;;8.18;;
63499;SDS011;49654;51.142;14.924;2023-09-07T07:26:54;9.73;;;7.38;;
63499;SDS011;49654;51.142;14.924;2023-09-07T07:29:21;11.32;;;7.53;;
63499;SDS011;49654;51.142;14.924;2023-09-07T07:31:49;10.77;;;7.47;;
63499;SDS011;49654;51.142;14.924;2023-09-07T07:34:16;8.65;;;7.32;;
63499;SDS011;49654;51.142;14.924;2023-09-07T07:36:43;7.72;;;6.82;;
63499;SDS011;49654;51.142;14.924;2023-09-07T07:39:10;7.72;;;7.03;;
63499;SDS011;49654;51.142;14.924;2023-09-07T07:41:39;7.13;;;6.43;;
63499;SDS011;49654;51.142;14.924;2023-09-07T07:44:06;10.55;;;7.60;;
63499;SDS011;49654;51.142;14.924;2023-09-07T07:46:33;8.60;;;6.45;;
63499;SDS011;49654;51.142;14.924;2023-09-07T07:49:00;9.13;;;6.45;;
63499;SDS011;49654;51.142;14.924;2023-09-07T07:51:27;9.77;;;6.72;;
63499;SDS011;49654;51.142;14.924;2023-09-07T07:53:54;9.25;;;7.05;;
63499;SDS011;49654;51.142;14.924;2023-09-07T07:56:22;6.95;;;6.07;;
63499;SDS011;49654;51.142;14.924;2023-09-07T07:58:51;10.60;;;6.60;;
63499;SDS011;49654;51.142;14.924;2023-09-07T08:01:19;9.57;;;6.10;;
63499;SDS011;49654;51.142;14.924;2023-09-07T08:03:46;8.40;;;5.80;;
63499;SDS011;49654;51.142;14.924;2023-09-07T08:06:14;11.65;;;6.60;;
63499;SDS011;49654;51.142;14.924;2023-09-07T08:08:41;6.63;;;5.25;;
63499;SDS011;49654;51.142;14.924;2023-09-07T08:11:08;6.68;;;5.38;;
63499;SDS011;49654;51.142;14.924;2023-09-07T08:13:35;7.38;;;5.57;;
63499;SDS011;49654;51.142;14.924;2023-09-07T08:16:04;12.02;;;6.18;;
63499;SDS011;49654;51.142;14.924;2023-09-07T08:18:32;11.00;;;6.03;;
63499;SDS011;49654;51.142;14.924;2023-09-07T08:21:00;6.97;;;5.65;;
63499;SDS011;49654;51.142;14.924;2023-09-07T08:23:27;7.28;;;5.63;;
63499;SDS011;49654;51.142;14.924;2023-09-07T08:25:55;8.10;;;5.78;;
63499;SDS011;49654;51.142;14.924;2023-09-07T08:28:22;7.55;;;5.70;;
63499;SDS011;49654;51.142;14.924;2023-09-07T08:30:51;8.10;;;5.55;;
63499;SDS011;49654;51.142;14.924;2023-09-07T08:33:21;8.32;;;6.13;;
63499;SDS011;49654;51.142;14.924;2023-09-07T08:35:55;7.85;;;5.97;;
63499;SDS011;49654;51.142;14.924;2023-09-07T08:38:23;7.00;;;6.30;;
63499;SDS011;49654;51.142;14.924;2023-09-07T08:40:53;9.30;;;6.00;;
63499;SDS011;49654;51.142;14.924;2023-09-07T08:43:21;7.25;;;5.78;;
63499;SDS011;49654;51.142;14.924;2023-09-07T08:45:59;6.90;;;5.80;;
63499;SDS011;49654;51.142;14.924;2023-09-07T08:48:38;8.73;;;6.20;;
63499;SDS011;49654;51.142;14.924;2023-09-07T08:51:07;7.40;;;6.40;;
63499;SDS011;49654;51.142;14.924;2023-09-07T08:53:37;8.05;;;5.47;;
63499;SDS011;49654;51.142;14.924;2023-09-07T08:56:06;6.60;;;5.80;;
63499;SDS011;49654;51.142;14.924;2023-09-07T08:58:35;12.35;;;6.57;;
63499;SDS011;49654;51.142;14.924;2023-09-07T09:01:02;9.40;;;5.55;;
63499;SDS011;49654;51.142;14.924;2023-09-07T09:03:29;6.63;;;5.93;;
63499;SDS011;49654;51.142;14.924;2023-09-07T09:05:58;7.90;;;5.63;;
63499;SDS011;49654;51.142;14.924;2023-09-07T09:08:25;8.07;;;5.32;;
63499;SDS011;49654;51.142;14.924;2023-09-07T09:10:58;7.50;;;5.70;;
63499;SDS011;49654;51.142;14.924;2023-09-07T09:13:29;5.85;;;4.90;;
63499;SDS011;49654;51.142;14.924;2023-09-07T09:15:58;9.07;;;5.30;;
63499;SDS011;49654;51.142;14.924;2023-09-07T09:18:26;6.45;;;5.00;;
63499;SDS011;49654;51.142;14.924;2023-09-07T09:20:54;5.75;;;5.10;;
63499;SDS011;49654;51.142;14.924;2023-09-07T09:23:23;10.10;;;5.10;;
63499;SDS011;49654;51.142;14.924;2023-09-07T09:25:50;8.23;;;4.95;;
63499;SDS011;49654;51.142;14.924;2023-09-07T09:28:17;8.05;;;5.38;;
63499;SDS011;49654;51.142;14.924;2023-09-07T09:30:44;5.88;;;4.90;;
63499;SDS011;49654;51.142;14.924;2023-09-07T09:33:11;5.15;;;4.53;;
63499;SDS011;49654;51.142;14.924;2023-09-07T09:35:39;6.78;;;4.82;;
63499;SDS011;49654;51.142;14.924;2023-09-07T09:38:06;7.00;;;4.85;;
63499;SDS011;49654;51.142;14.924;2023-09-07T09:40:35;5.70;;;4.53;;
63499;SDS011;49654;51.142;14.924;2023-09-07T09:43:02;6.00;;;5.00;;
63499;SDS011;49654;51.142;14.924;2023-09-07T09:45:29;15.52;;;6.53;;
63499;SDS011;49654;51.142;14.924;2023-09-07T09:47:58;6.35;;;5.35;;
63499;SDS011;49654;51.142;14.924;2023-09-07T09:50:26;6.20;;;5.10;;
63499;SDS011;49654;51.142;14.924;2023-09-07T09:52:53;6.00;;;5.03;;
63499;SDS011;49654;51.142;14.924;2023-09-07T09:55:20;7.72;;;5.50;;
63499;SDS011;49654;51.142;14.924;2023-09-07T09:57:50;7.95;;;5.25;;
63499;SDS011;49654;51.142;14.924;2023-09-07T10:00:17;6.50;;;4.97;;
63499;SDS011;49654;51.142;14.924;2023-09-07T10:02:55;7.65;;;5.40;;
63499;SDS011;49654;51.142;14.924;2023-09-07T10:05:25;7.00;;;5.55;;
63499;SDS011;49654;51.142;14.924;2023-09-07T10:07:59;7.65;;;5.15;;
63499;SDS011;49654;51.142;14.924;2023-09-07T10:10:34;6.80;;;5.47;;
63499;SDS011;49654;51.142;14.924;2023-09-07T10:13:04;9.35;;;6.20;;
63499;SDS011;49654;51.142;14.924;2023-09-07T10:15:32;6.78;;;5.82;;
63499;SDS011;49654;51.142;14.924;2023-09-07T10:18:08;6.50;;;5.70;;
63499;SDS011;49654;51.142;14.924;2023-09-07T10:20:46;11.27;;;6.20;;
63499;SDS011;49654;51.142;14.924;2023-09-07T10:23:15;7.72;;;5.63;;
63499;SDS011;49654;51.142;14.924;2023-09-07T10:25:42;7.13;;;5.30;;
63499;SDS011;49654;51.142;14.924;2023-09-07T10:28:22;8.55;;;5.40;;
63499;SDS011;49654;51.142;14.924;2023-09-07T10:31:02;7.30;;;5.40;;
63499;SDS011;49654;51.142;14.924;2023-09-07T10:33:31;9.90;;;6.40;;
63499;SDS011;49654;51.142;14.924;2023-09-07T10:35:58;10.43;;;6.40;;
63499;SDS011;49654;51.142;14.924;2023-09-07T10:38:25;7.13;;;5.28;;
63499;SDS011;49654;51.142;14.924;2023-09-07T10:40:56;11.35;;;5.25;;
63499;SDS011;49654;51.142;14.924;2023-09-07T10:43:28;8.50;;;5.57;;
63499;SDS011;49654;51.142;14.924;2023-09-07T10:45:57;5.72;;;4.85;;
63499;SDS011;49654;51.142;14.924;2023-09-07T10:48:26;7.47;;;5.45;;
63499;SDS011;49654;51.142;14.924;2023-09-07T10:50:55;9.15;;;5.78;;
63499;SDS011;49654;51.142;14.924;2023-09-07T10:53:26;5.80;;;5.03;;
63499;SDS011;49654;51.142;14.924;2023-09-07T10:55:54;6.05;;;5.28;;
63499;SDS011;49654;51.142;14.924;2023-09-07T10:58:25;5.20;;;4.70;;
63499;SDS011;49654;51.142;14.924;2023-09-07T11:00:54;6.28;;;4.80;;
63499;SDS011;49654;51.142;14.924;2023-09-07T11:03:22;5.25;;;4.57;;
63499;SDS011;49654;51.142;14.924;2023-09-07T11:05:51;7.30;;;4.32;;
63499;SDS011;49654;51.142;14.924;2023-09-07T11:08:21;6.35;;;4.32;;
63499;SDS011;49654;51.142;14.924;2023-09-07T11:10:47;8.38;;;4.80;;
63499;SDS011;49654;51.142;14.924;2023-09-07T11:13:16;6.75;;;4.30;;
63499;SDS011;49654;51.142;14.924;2023-09-07T11:15:42;4.95;;;4.28;;
63499;SDS011;49654;51.142;14.924;2023-09-07T11:18:11;7.30;;;4.47;;
63499;SDS011;49654;51.142;14.924;2023-09-07T11:20:39;5.55;;;4.20;;
63499;SDS011;49654;51.142;14.924;2023-09-07T11:23:06;9.68;;;4.72;;
63499;SDS011;49654;51.142;14.924;2023-09-07T11:25:34;6.57;;;4.78;;
63499;SDS011;49654;51.142;14.924;2023-09-07T11:28:02;7.07;;;4.80;;
63499;SDS011;49654;51.142;14.924;2023-09-07T11:30:30;6.05;;;4.70;;
63499;SDS011;49654;51.142;14.924;2023-09-07T11:33:00;4.80;;;4.30;;
63499;SDS011;49654;51.142;14.924;2023-09-07T11:35:30;5.35;;;4.57;;
63499;SDS011;49654;51.142;14.924;2023-09-07T11:37:58;7.50;;;4.15;;
63499;SDS011;49654;51.142;14.924;2023-09-07T11:40:26;5.50;;;4.47;;
63499;SDS011;49654;51.142;14.924;2023-09-07T11:42:53;5.88;;;4.63;;
63499;SDS011;49654;51.142;14.924;2023-09-07T11:45:20;5.93;;;4.22;;
63499;SDS011;49654;51.142;14.924;2023-09-07T11:47:47;5.85;;;4.53;;
63499;SDS011;49654;51.142;14.924;2023-09-07T11:50:16;5.53;;;4.40;;
63499;SDS011;49654;51.142;14.924;2023-09-07T11:52:47;5.38;;;4.30;;
63499;SDS011;49654;51.142;14.924;2023-09-07T11:55:14;6.03;;;4.65;;
63499;SDS011;49654;51.142;14.924;2023-09-07T11:57:41;8.38;;;4.65;;
63499;SDS011;49654;51.142;14.924;2023-09-07T12:00:08;6.97;;;4.47;;
63499;SDS011;49654;51.142;14.924;2023-09-07T12:02:36;5.65;;;4.45;;
63499;SDS011;49654;51.142;14.924;2023-09-07T12:05:04;12.48;;;4.40;;
63499;SDS011;49654;51.142;14.924;2023-09-07T12:07:33;9.75;;;4.47;;
63499;SDS011;49654;51.142;14.924;2023-09-07T12:10:02;9.25;;;4.60;;
63499;SDS011;49654;51.142;14.924;2023-09-07T12:12:29;4.53;;;4.13;;
63499;SDS011;49654;51.142;14.924;2023-09-07T12:14:56;6.30;;;3.70;;
63499;SDS011;49654;51.142;14.924;2023-09-07T12:17:23;6.85;;;4.22;;
63499;SDS011;49654;51.142;14.924;2023-09-07T12:19:50;5.07;;;4.13;;
63499;SDS011;49654;51.142;14.924;2023-09-07T12:22:17;4.88;;;4.15;;
63499;SDS011;49654;51.142;14.924;2023-09-07T12:24:46;6.15;;;3.83;;
63499;SDS011;49654;51.142;14.924;2023-09-07T12:27:14;4.90;;;4.18;;
63499;SDS011;49654;51.142;14.924;2023-09-07T12:29:41;6.45;;;3.85;;
63499;SDS011;49654;51.142;14.924;2023-09-07T12:32:08;4.40;;;3.72;;
63499;SDS011;49654;51.142;14.924;2023-09-07T12:34:35;4.60;;;3.75;;
63499;SDS011;49654;51.142;14.924;2023-09-07T12:37:02;7.97;;;4.25;;
63499;SDS011;49654;51.142;14.924;2023-09-07T12:39:30;8.27;;;4.45;;
63499;SDS011;49654;51.142;14.924;2023-09-07T12:41:57;6.75;;;4.03;;
63499;SDS011;49654;51.142;14.924;2023-09-07T12:44:25;8.20;;;4.43;;
63499;SDS011;49654;51.142;14.924;2023-09-07T12:46:52;6.47;;;4.38;;
63499;SDS011;49654;51.142;14.924;2023-09-07T12:49:19;6.55;;;3.70;;
63499;SDS011;49654;51.142;14.924;2023-09-07T12:51:46;6.95;;;4.30;;
63499;SDS011;49654;51.142;14.924;2023-09-07T12:54:13;7.00;;;4.22;;
63499;SDS011;49654;51.142;14.924;2023-09-07T12:56:40;6.20;;;4.10;;
63499;SDS011;49654;51.142;14.924;2023-09-07T12:59:07;6.03;;;4.10;;
63499;SDS011;49654;51.142;14.924;2023-09-07T13:01:36;7.22;;;3.90;;
63499;SDS011;49654;51.142;14.924;2023-09-07T13:04:03;5.32;;;3.80;;
63499;SDS011;49654;51.142;14.924;2023-09-07T13:06:30;4.80;;;3.90;;
63499;SDS011;49654;51.142;14.924;2023-09-07T13:08:57;5.50;;;4.03;;
63499;SDS011;49654;51.142;14.924;2023-09-07T13:11:24;4.15;;;3.75;;
63499;SDS011;49654;51.142;14.924;2023-09-07T13:13:51;5.47;;;3.72;;
63499;SDS011;49654;51.142;14.924;2023-09-07T13:16:18;6.03;;;5.03;;
63499;SDS011;49654;51.142;14.924;2023-09-07T13:18:47;7.00;;;3.88;;
63499;SDS011;49654;51.142;14.924;2023-09-07T13:21:14;5.70;;;3.90;;
63499;SDS011;49654;51.142;14.924;2023-09-07T13:23:41;7.85;;;3.42;;
63499;SDS011;49654;51.142;14.924;2023-09-07T13:26:08;5.88;;;3.78;;
63499;SDS011;49654;51.142;14.924;2023-09-07T13:28:35;5.88;;;4.03;;
63499;SDS011;49654;51.142;14.924;2023-09-07T13:31:02;6.38;;;3.60;;
63499;SDS011;49654;51.142;14.924;2023-09-07T13:33:29;5.55;;;3.75;;
63499;SDS011;49654;51.142;14.924;2023-09-07T13:35:58;4.25;;;3.53;;
63499;SDS011;49654;51.142;14.924;2023-09-07T13:38:25;6.47;;;3.75;;
63499;SDS011;49654;51.142;14.924;2023-09-07T13:40:52;4.90;;;3.53;;
63499;SDS011;49654;51.142;14.924;2023-09-07T13:43:19;6.72;;;3.40;;
63499;SDS011;49654;51.142;14.924;2023-09-07T13:45:46;5.82;;;3.95;;
63499;SDS011;49654;51.142;14.924;2023-09-07T13:48:13;6.40;;;3.70;;
63499;SDS011;49654;51.142;14.924;2023-09-07T13:50:40;4.45;;;4.05;;
63499;SDS011;49654;51.142;14.924;2023-09-07T13:53:10;4.85;;;4.00;;
63499;SDS011;49654;51.142;14.924;2023-09-07T13:55:36;6.03;;;3.60;;
63499;SDS011;49654;51.142;14.924;2023-09-07T13:58:05;6.03;;;4.07;;
63499;SDS011;49654;51.142;14.924;2023-09-07T14:00:32;6.25;;;3.85;;
63499;SDS011;49654;51.142;14.924;2023-09-07T14:02:59;5.63;;;3.75;;
63499;SDS011;49654;51.142;14.924;2023-09-07T14:05:26;3.90;;;3.50;;
63499;SDS011;49654;51.142;14.924;2023-09-07T14:07:53;6.43;;;4.30;;
63499;SDS011;49654;51.142;14.924;2023-09-07T14:10:23;4.00;;;3.33;;
63499;SDS011;49654;51.142;14.924;2023-09-07T14:12:50;3.75;;;3.38;;
63499;SDS011;49654;51.142;14.924;2023-09-07T14:15:17;4.18;;;3.78;;
63499;SDS011;49654;51.142;14.924;2023-09-07T14:17:44;6.40;;;4.20;;
63499;SDS011;49654;51.142;14.924;2023-09-07T14:20:12;4.03;;;3.63;;
63499;SDS011;49654;51.142;14.924;2023-09-07T14:22:39;5.43;;;3.78;;
63499;SDS011;49654;51.142;14.924;2023-09-07T14:25:06;3.95;;;3.65;;
63499;SDS011;49654;51.142;14.924;2023-09-07T14:27:35;4.10;;;3.80;;
63499;SDS011;49654;51.142;14.924;2023-09-07T14:30:02;6.28;;;4.03;;
63499;SDS011;49654;51.142;14.924;2023-09-07T14:32:29;6.65;;;4.00;;
63499;SDS011;49654;51.142;14.924;2023-09-07T14:34:56;6.55;;;3.88;;